N59BS MYBS-KNEW
Flight info
| Callsign | N59BS |
|---|---|
| Flight time | N/A |
| Altitude | 40000 |
| Route | SKIPS Y290 LEV |
| Aircraft | C525/L-SDFGRWY/S |
Departure
| Time | 2026-05-05 16:58 |
|---|---|
| Airport | South Bimini Airport (MYBS) |
Arrival
| Time | N/A |
|---|---|
| Airport | Lakefront Airport (KNEW) |
| Time | Latitude | Longitude | Altitude | Speed | Heading |
|---|---|---|---|---|---|
| 2026-05-05 16:40 | 25.70128 | -79.27201 | 35 ft | 0 kts | 224° |
| 2026-05-05 16:51 | 25.70125 | -79.27204 | 35 ft | 1 kts | 225° |
| 2026-05-05 16:52 | 25.70114 | -79.27219 | 35 ft | 3 kts | 234° |
| 2026-05-05 16:52 | 25.70096 | -79.27250 | 35 ft | 5 kts | 240° |
| 2026-05-05 16:52 | 25.70065 | -79.27284 | 35 ft | 7 kts | 185° |
| 2026-05-05 16:52 | 25.70006 | -79.27293 | 35 ft | 9 kts | 229° |
| 2026-05-05 16:53 | 25.69997 | -79.27372 | 35 ft | 11 kts | 271° |
| 2026-05-05 16:53 | 25.69996 | -79.27469 | 35 ft | 13 kts | 270° |
| 2026-05-05 16:53 | 25.69977 | -79.27569 | 35 ft | 8 kts | 239° |
| 2026-05-05 16:53 | 25.69972 | -79.27586 | 35 ft | 0 kts | 266° |
| 2026-05-05 16:55 | 25.69971 | -79.27589 | 35 ft | 1 kts | 268° |
| 2026-05-05 16:55 | 25.69975 | -79.27612 | 35 ft | 4 kts | 316° |
| 2026-05-05 16:55 | 25.69994 | -79.27592 | 35 ft | 0 kts | 93° |
| 2026-05-05 16:57 | 25.69994 | -79.27590 | 35 ft | 5 kts | 92° |
| 2026-05-05 16:57 | 25.69990 | -79.27282 | 35 ft | 71 kts | 91° |
| 2026-05-05 16:57 | 25.69994 | -79.26528 | 35 ft | 122 kts | 91° |
| 2026-05-05 16:57 | 25.70009 | -79.25552 | 460 ft | 121 kts | 84° |
| 2026-05-05 16:58 | 25.70240 | -79.24535 | 598 ft | 146 kts | 73° |
| 2026-05-05 16:58 | 25.70577 | -79.23413 | 1045 ft | 163 kts | 72° |
| 2026-05-05 16:58 | 25.70969 | -79.22143 | 1478 ft | 186 kts | 72° |
| 2026-05-05 16:58 | 25.71420 | -79.20688 | 1899 ft | 213 kts | 72° |
| 2026-05-05 16:59 | 25.71635 | -79.18986 | 2281 ft | 236 kts | 101° |
| 2026-05-05 16:59 | 25.70830 | -79.17407 | 3043 ft | 239 kts | 137° |
| 2026-05-05 16:59 | 25.69370 | -79.16608 | 3789 ft | 240 kts | 170° |
| 2026-05-05 16:59 | 25.67694 | -79.16402 | 4551 ft | 243 kts | 179° |
| 2026-05-05 17:00 | 25.65998 | -79.16354 | 5314 ft | 244 kts | 184° |
| 2026-05-05 17:00 | 25.64441 | -79.16962 | 6035 ft | 240 kts | 217° |
| 2026-05-05 17:00 | 25.63174 | -79.18153 | 6768 ft | 241 kts | 225° |
| 2026-05-05 17:00 | 25.61986 | -79.19482 | 7437 ft | 243 kts | 229° |
| 2026-05-05 17:01 | 25.60822 | -79.20855 | 8097 ft | 246 kts | 229° |
| 2026-05-05 17:01 | 25.59666 | -79.22244 | 8753 ft | 248 kts | 230° |
| 2026-05-05 17:01 | 25.58499 | -79.23658 | 9428 ft | 248 kts | 230° |
| 2026-05-05 17:01 | 25.57340 | -79.25069 | 10011 ft | 251 kts | 231° |
| 2026-05-05 17:02 | 25.56247 | -79.26559 | 10567 ft | 251 kts | 244° |
| 2026-05-05 17:02 | 25.55950 | -79.28432 | 11191 ft | 248 kts | 273° |
| 2026-05-05 17:02 | 25.56167 | -79.30331 | 11668 ft | 253 kts | 279° |
| 2026-05-05 17:02 | 25.56519 | -79.32235 | 12247 ft | 253 kts | 282° |
| 2026-05-05 17:03 | 25.56911 | -79.34144 | 12792 ft | 254 kts | 282° |
| 2026-05-05 17:03 | 25.57320 | -79.36073 | 13284 ft | 257 kts | 283° |
| 2026-05-05 17:03 | 25.57730 | -79.37981 | 13795 ft | 258 kts | 283° |
| 2026-05-05 17:03 | 25.58154 | -79.39936 | 14278 ft | 259 kts | 284° |
| 2026-05-05 17:04 | 25.58573 | -79.41865 | 14774 ft | 260 kts | 284° |
| 2026-05-05 17:04 | 25.58997 | -79.43814 | 15227 ft | 261 kts | 284° |
| 2026-05-05 17:04 | 25.59420 | -79.45752 | 15664 ft | 262 kts | 285° |
| 2026-05-05 17:04 | 25.59848 | -79.47711 | 16111 ft | 263 kts | 285° |
| 2026-05-05 17:05 | 25.60279 | -79.49682 | 16542 ft | 263 kts | 285° |
| 2026-05-05 17:05 | 25.60710 | -79.51656 | 16895 ft | 266 kts | 285° |
| 2026-05-05 17:05 | 25.61149 | -79.53664 | 17368 ft | 264 kts | 285° |
| 2026-05-05 17:05 | 25.61587 | -79.55666 | 17695 ft | 268 kts | 286° |
| 2026-05-05 17:06 | 25.62026 | -79.57677 | 18070 ft | 268 kts | 286° |
| 2026-05-05 17:06 | 25.62462 | -79.59676 | 18423 ft | 270 kts | 286° |
| 2026-05-05 17:06 | 25.62901 | -79.61687 | 18795 ft | 270 kts | 286° |
| 2026-05-05 17:06 | 25.63346 | -79.63724 | 19162 ft | 270 kts | 286° |
| 2026-05-05 17:07 | 25.63785 | -79.65744 | 19470 ft | 272 kts | 285° |
| 2026-05-05 17:07 | 25.64230 | -79.67786 | 19864 ft | 271 kts | 285° |
| 2026-05-05 17:07 | 25.64686 | -79.69817 | 20121 ft | 274 kts | 287° |
| 2026-05-05 17:07 | 25.65220 | -79.71844 | 20500 ft | 272 kts | 288° |
| 2026-05-05 17:08 | 25.65770 | -79.73867 | 20855 ft | 272 kts | 288° |
| 2026-05-05 17:08 | 25.66318 | -79.75873 | 21143 ft | 273 kts | 288° |
| 2026-05-05 17:08 | 25.66858 | -79.77859 | 21650 ft | 266 kts | 288° |
| 2026-05-05 17:08 | 25.67394 | -79.79836 | 21872 ft | 270 kts | 288° |
| 2026-05-05 17:09 | 25.67937 | -79.81842 | 22211 ft | 269 kts | 288° |
| 2026-05-05 17:09 | 25.68478 | -79.83849 | 22441 ft | 272 kts | 288° |
| 2026-05-05 17:09 | 25.69014 | -79.85839 | 22804 ft | 269 kts | 288° |
| 2026-05-05 17:09 | 25.69552 | -79.87842 | 22979 ft | 274 kts | 288° |
| 2026-05-05 17:10 | 25.70098 | -79.89874 | 23307 ft | 272 kts | 288° |
| 2026-05-05 17:10 | 25.70645 | -79.91915 | 23549 ft | 274 kts | 288° |
| 2026-05-05 17:10 | 25.71188 | -79.93943 | 23799 ft | 275 kts | 288° |
| 2026-05-05 17:10 | 25.71739 | -79.96004 | 24044 ft | 276 kts | 288° |
| 2026-05-05 17:11 | 25.72284 | -79.98043 | 24242 ft | 279 kts | 288° |
| 2026-05-05 17:11 | 25.72837 | -80.00111 | 24493 ft | 279 kts | 288° |
| 2026-05-05 17:11 | 25.73392 | -80.02192 | 24707 ft | 281 kts | 289° |
| 2026-05-05 17:11 | 25.73950 | -80.04287 | 24986 ft | 280 kts | 288° |
| 2026-05-05 17:12 | 25.74502 | -80.06355 | 25212 ft | 280 kts | 288° |
| 2026-05-05 17:12 | 25.75061 | -80.08459 | 25332 ft | 284 kts | 289° |
| 2026-05-05 17:12 | 25.75614 | -80.10536 | 25633 ft | 282 kts | 289° |
| 2026-05-05 17:12 | 25.76180 | -80.12663 | 25837 ft | 283 kts | 289° |
| 2026-05-05 17:13 | 25.76735 | -80.14753 | 25952 ft | 286 kts | 289° |
| 2026-05-05 17:13 | 25.77303 | -80.16889 | 26181 ft | 286 kts | 289° |
| 2026-05-05 17:13 | 25.77866 | -80.19013 | 26351 ft | 288 kts | 289° |
| 2026-05-05 17:13 | 25.78432 | -80.21149 | 26555 ft | 288 kts | 289° |
| 2026-05-05 17:14 | 25.79007 | -80.23318 | 26718 ft | 289 kts | 289° |
| 2026-05-05 17:14 | 25.79570 | -80.25446 | 26946 ft | 288 kts | 289° |
| 2026-05-05 17:14 | 25.80144 | -80.27611 | 27092 ft | 290 kts | 289° |
| 2026-05-05 17:14 | 25.80703 | -80.29727 | 27628 ft | 279 kts | 289° |
| 2026-05-05 17:15 | 25.81236 | -80.31754 | 28018 ft | 272 kts | 290° |
| 2026-05-05 17:15 | 25.81771 | -80.33780 | 28269 ft | 271 kts | 289° |
| 2026-05-05 17:15 | 25.82294 | -80.35761 | 28618 ft | 267 kts | 290° |
| 2026-05-05 17:15 | 25.82821 | -80.37756 | 28785 ft | 268 kts | 289° |
| 2026-05-05 17:16 | 25.83346 | -80.39747 | 29022 ft | 267 kts | 290° |
| 2026-05-05 17:16 | 25.83861 | -80.41702 | 29392 ft | 262 kts | 290° |
| 2026-05-05 17:16 | 25.84373 | -80.43645 | 29575 ft | 263 kts | 290° |
| 2026-05-05 17:16 | 25.84887 | -80.45591 | 29749 ft | 264 kts | 290° |
| 2026-05-05 17:17 | 25.85407 | -80.47569 | 29980 ft | 263 kts | 290° |
| 2026-05-05 17:17 | 25.85918 | -80.49513 | 30155 ft | 263 kts | 290° |
| 2026-05-05 17:17 | 25.86434 | -80.51475 | 30306 ft | 265 kts | 291° |
| 2026-05-05 17:17 | 25.86950 | -80.53442 | 30530 ft | 263 kts | 291° |
| 2026-05-05 17:18 | 25.87470 | -80.55422 | 30706 ft | 263 kts | 291° |
| 2026-05-05 17:18 | 25.87985 | -80.57383 | 30873 ft | 264 kts | 291° |
| 2026-05-05 17:18 | 25.88497 | -80.59335 | 31009 ft | 265 kts | 291° |
| 2026-05-05 17:18 | 25.89012 | -80.61304 | 31201 ft | 264 kts | 291° |
| 2026-05-05 17:19 | 25.89527 | -80.63271 | 31522 ft | 258 kts | 291° |
| 2026-05-05 17:19 | 25.90021 | -80.65170 | 31855 ft | 253 kts | 292° |
| 2026-05-05 17:19 | 25.90516 | -80.67066 | 32053 ft | 253 kts | 292° |
| 2026-05-05 17:19 | 25.91007 | -80.68944 | 32257 ft | 252 kts | 292° |
| 2026-05-05 17:20 | 25.91499 | -80.70824 | 32461 ft | 251 kts | 292° |
| 2026-05-05 17:20 | 25.91985 | -80.72686 | 32665 ft | 250 kts | 293° |
| 2026-05-05 17:20 | 25.92473 | -80.74555 | 32874 ft | 249 kts | 293° |
| 2026-05-05 17:20 | 25.92956 | -80.76408 | 33076 ft | 248 kts | 293° |
| 2026-05-05 17:21 | 25.93432 | -80.78233 | 33303 ft | 246 kts | 293° |
| 2026-05-05 17:21 | 25.93908 | -80.80063 | 33537 ft | 245 kts | 293° |
| 2026-05-05 17:21 | 25.94381 | -80.81879 | 33766 ft | 244 kts | 293° |
| 2026-05-05 17:22 | 25.95322 | -80.85497 | 34235 ft | 241 kts | 294° |
| 2026-05-05 17:22 | 25.95785 | -80.87280 | 34465 ft | 239 kts | 294° |
| 2026-05-05 17:22 | 25.96247 | -80.89057 | 34700 ft | 238 kts | 294° |
| 2026-05-05 17:22 | 25.96705 | -80.90825 | 34937 ft | 236 kts | 294° |
| 2026-05-05 17:23 | 25.97160 | -80.92578 | 35174 ft | 235 kts | 293° |
| 2026-05-05 17:23 | 25.97611 | -80.94321 | 35409 ft | 233 kts | 294° |
| 2026-05-05 17:23 | 25.98059 | -80.96046 | 35643 ft | 231 kts | 294° |
| 2026-05-05 17:23 | 25.98503 | -80.97765 | 35878 ft | 229 kts | 294° |
| 2026-05-05 17:24 | 25.98942 | -80.99461 | 36114 ft | 227 kts | 294° |
| 2026-05-05 17:24 | 25.99374 | -81.01132 | 36345 ft | 224 kts | 294° |
| 2026-05-05 17:24 | 25.99808 | -81.02811 | 36578 ft | 222 kts | 294° |
| 2026-05-05 17:24 | 26.00231 | -81.04449 | 36813 ft | 219 kts | 294° |
| 2026-05-05 17:25 | 26.00648 | -81.06063 | 37044 ft | 216 kts | 294° |
| 2026-05-05 17:25 | 26.00925 | -81.07139 | 37204 ft | 214 kts | 295° |
| 2026-05-05 17:25 | 26.01464 | -81.09230 | 37511 ft | 209 kts | 295° |
| 2026-05-05 17:25 | 26.01861 | -81.10770 | 37744 ft | 205 kts | 295° |
| 2026-05-05 17:26 | 26.02252 | -81.12287 | 37974 ft | 201 kts | 295° |
| 2026-05-05 17:26 | 26.02632 | -81.13765 | 38198 ft | 196 kts | 295° |
| 2026-05-05 17:26 | 26.03005 | -81.15216 | 38426 ft | 191 kts | 295° |
| 2026-05-05 17:26 | 26.03370 | -81.16637 | 38665 ft | 186 kts | 295° |
| 2026-05-05 17:27 | 26.03721 | -81.18003 | 38906 ft | 180 kts | 296° |
| 2026-05-05 17:27 | 26.04059 | -81.19322 | 39143 ft | 174 kts | 296° |
| 2026-05-05 17:27 | 26.04384 | -81.20592 | 39397 ft | 167 kts | 296° |
| 2026-05-05 17:27 | 26.04697 | -81.21812 | 39635 ft | 159 kts | 296° |
| 2026-05-05 17:28 | 26.04990 | -81.22962 | 39864 ft | 151 kts | 297° |
| 2026-05-05 17:28 | 26.05274 | -81.24070 | 40001 ft | 147 kts | 297° |
| 2026-05-05 17:28 | 26.05560 | -81.25169 | 40008 ft | 145 kts | 298° |
| 2026-05-05 17:28 | 26.05841 | -81.26248 | 39995 ft | 145 kts | 297° |
| 2026-05-05 17:29 | 26.06125 | -81.27342 | 40000 ft | 145 kts | 297° |
| 2026-05-05 17:29 | 26.06402 | -81.28416 | 39997 ft | 144 kts | 297° |
| 2026-05-05 17:29 | 26.06677 | -81.29483 | 40019 ft | 142 kts | 297° |
| 2026-05-05 17:29 | 26.06951 | -81.30547 | 40008 ft | 142 kts | 298° |
| 2026-05-05 17:30 | 26.07222 | -81.31602 | 40012 ft | 140 kts | 298° |
| 2026-05-05 17:30 | 26.07490 | -81.32643 | 40006 ft | 139 kts | 298° |
| 2026-05-05 17:30 | 26.07754 | -81.33674 | 40020 ft | 137 kts | 297° |
| 2026-05-05 17:30 | 26.08016 | -81.34699 | 40003 ft | 136 kts | 297° |
| 2026-05-05 17:31 | 26.08278 | -81.35721 | 40012 ft | 134 kts | 297° |
| 2026-05-05 17:31 | 26.08532 | -81.36717 | 40007 ft | 132 kts | 298° |
| 2026-05-05 17:31 | 26.08783 | -81.37700 | 40014 ft | 130 kts | 298° |
| 2026-05-05 17:31 | 26.09030 | -81.38667 | 39978 ft | 129 kts | 298° |
| 2026-05-05 17:32 | 26.09277 | -81.39625 | 39922 ft | 129 kts | 297° |
| 2026-05-05 17:32 | 26.09520 | -81.40576 | 39904 ft | 127 kts | 298° |
| 2026-05-05 17:32 | 26.09768 | -81.41539 | 39813 ft | 129 kts | 298° |
| 2026-05-05 17:32 | 26.10017 | -81.42513 | 39790 ft | 128 kts | 298° |
| 2026-05-05 17:33 | 26.10262 | -81.43471 | 39795 ft | 127 kts | 298° |
| 2026-05-05 17:33 | 26.10505 | -81.44423 | 39785 ft | 127 kts | 298° |
| 2026-05-05 17:33 | 26.10753 | -81.45364 | 39765 ft | 125 kts | 304° |
| 2026-05-05 17:33 | 26.11194 | -81.46186 | 39712 ft | 122 kts | 311° |
| 2026-05-05 17:34 | 26.11741 | -81.46946 | 39456 ft | 133 kts | 313° |
| 2026-05-05 17:34 | 26.12379 | -81.47780 | 39061 ft | 149 kts | 313° |
| 2026-05-05 17:34 | 26.13057 | -81.48664 | 39059 ft | 151 kts | 313° |
| 2026-05-05 17:34 | 26.13757 | -81.49582 | 39016 ft | 155 kts | 313° |
| 2026-05-05 17:35 | 26.14457 | -81.50504 | 39016 ft | 159 kts | 313° |
| 2026-05-05 17:35 | 26.15182 | -81.51462 | 39021 ft | 162 kts | 313° |
| 2026-05-05 17:35 | 26.15922 | -81.52441 | 39025 ft | 165 kts | 312° |
| 2026-05-05 17:35 | 26.16665 | -81.53426 | 39014 ft | 169 kts | 312° |
| 2026-05-05 17:36 | 26.17437 | -81.54452 | 39021 ft | 172 kts | 311° |
| 2026-05-05 17:36 | 26.18217 | -81.55488 | 39017 ft | 176 kts | 312° |
| 2026-05-05 17:36 | 26.19012 | -81.56547 | 39025 ft | 179 kts | 312° |
| 2026-05-05 17:36 | 26.19828 | -81.57632 | 39018 ft | 183 kts | 312° |
| 2026-05-05 17:37 | 26.20645 | -81.58721 | 39018 ft | 186 kts | 312° |
| 2026-05-05 17:37 | 26.21499 | -81.59859 | 39031 ft | 190 kts | 312° |
| 2026-05-05 17:37 | 26.22359 | -81.61005 | 39030 ft | 194 kts | 312° |
| 2026-05-05 17:37 | 26.23230 | -81.62166 | 39075 ft | 196 kts | 312° |
| 2026-05-05 17:38 | 26.24116 | -81.63348 | 39113 ft | 199 kts | 312° |
| 2026-05-05 17:38 | 26.25007 | -81.64537 | 39152 ft | 202 kts | 311° |
| 2026-05-05 17:38 | 26.25925 | -81.65762 | 39206 ft | 205 kts | 312° |
| 2026-05-05 17:38 | 26.26853 | -81.67001 | 39243 ft | 208 kts | 311° |
| 2026-05-05 17:39 | 26.27785 | -81.68246 | 39288 ft | 211 kts | 311° |
| 2026-05-05 17:39 | 26.28740 | -81.69522 | 39330 ft | 214 kts | 311° |
| 2026-05-05 17:39 | 26.29704 | -81.70810 | 39374 ft | 217 kts | 311° |
| 2026-05-05 17:39 | 26.30686 | -81.72122 | 39418 ft | 220 kts | 311° |
| 2026-05-05 17:40 | 26.31684 | -81.73457 | 39462 ft | 223 kts | 311° |
| 2026-05-05 17:40 | 26.32688 | -81.74799 | 39496 ft | 227 kts | 311° |
| 2026-05-05 17:40 | 26.33716 | -81.76174 | 39541 ft | 229 kts | 311° |
| 2026-05-05 17:40 | 26.34740 | -81.77544 | 39582 ft | 232 kts | 311° |
| 2026-05-05 17:41 | 26.35794 | -81.78956 | 39623 ft | 235 kts | 311° |
| 2026-05-05 17:41 | 26.36852 | -81.80372 | 39665 ft | 238 kts | 311° |
| 2026-05-05 17:41 | 26.37920 | -81.81803 | 39707 ft | 241 kts | 311° |
| 2026-05-05 17:41 | 26.39014 | -81.83269 | 39745 ft | 244 kts | 311° |
| 2026-05-05 17:42 | 26.40113 | -81.84740 | 39784 ft | 247 kts | 311° |
| 2026-05-05 17:42 | 26.41208 | -81.86208 | 39822 ft | 249 kts | 310° |
| 2026-05-05 17:42 | 26.42338 | -81.87725 | 39860 ft | 252 kts | 311° |
| 2026-05-05 17:42 | 26.43468 | -81.89241 | 39900 ft | 254 kts | 310° |
| 2026-05-05 17:43 | 26.44607 | -81.90769 | 39934 ft | 256 kts | 311° |
| 2026-05-05 17:43 | 26.45753 | -81.92307 | 39973 ft | 258 kts | 310° |
| 2026-05-05 17:43 | 26.46920 | -81.93875 | 40014 ft | 260 kts | 311° |
| 2026-05-05 17:43 | 26.48076 | -81.95428 | 40026 ft | 262 kts | 311° |
| 2026-05-05 17:44 | 26.49262 | -81.97021 | 40027 ft | 265 kts | 311° |
| 2026-05-05 17:44 | 26.50442 | -81.98608 | 40026 ft | 267 kts | 311° |
| 2026-05-05 17:44 | 26.51651 | -82.00234 | 40026 ft | 269 kts | 311° |
| 2026-05-05 17:44 | 26.52855 | -82.01852 | 40023 ft | 272 kts | 311° |
| 2026-05-05 17:45 | 26.54091 | -82.03516 | 40022 ft | 274 kts | 311° |
| 2026-05-05 17:45 | 26.55310 | -82.05157 | 40019 ft | 276 kts | 311° |
| 2026-05-05 17:45 | 26.56552 | -82.06829 | 40022 ft | 277 kts | 311° |
| 2026-05-05 17:45 | 26.57804 | -82.08517 | 40019 ft | 279 kts | 310° |
| 2026-05-05 17:46 | 26.59048 | -82.10193 | 40017 ft | 281 kts | 311° |
| 2026-05-05 17:46 | 26.60319 | -82.11906 | 40017 ft | 282 kts | 310° |
| 2026-05-05 17:46 | 26.61585 | -82.13615 | 40013 ft | 283 kts | 310° |
| 2026-05-05 17:46 | 26.62763 | -82.15204 | 40010 ft | 285 kts | 311° |
| 2026-05-05 17:47 | 26.64026 | -82.16908 | 40003 ft | 286 kts | 310° |
| 2026-05-05 17:47 | 26.65300 | -82.18629 | 40010 ft | 287 kts | 310° |
| 2026-05-05 17:47 | 26.66598 | -82.20382 | 40015 ft | 288 kts | 311° |
| 2026-05-05 17:47 | 26.67875 | -82.22107 | 40015 ft | 289 kts | 311° |
| 2026-05-05 17:48 | 26.69177 | -82.23866 | 40014 ft | 289 kts | 310° |
| 2026-05-05 17:48 | 26.70463 | -82.25606 | 40013 ft | 290 kts | 310° |
| 2026-05-05 17:48 | 26.71765 | -82.27367 | 40015 ft | 291 kts | 310° |
| 2026-05-05 17:48 | 26.73054 | -82.29112 | 40014 ft | 292 kts | 310° |
| 2026-05-05 17:49 | 26.74347 | -82.30862 | 40014 ft | 292 kts | 310° |
| 2026-05-05 17:49 | 26.75649 | -82.32626 | 40011 ft | 293 kts | 311° |
| 2026-05-05 17:49 | 26.76961 | -82.34404 | 40014 ft | 293 kts | 310° |
| 2026-05-05 17:49 | 26.78268 | -82.36176 | 40013 ft | 293 kts | 310° |
| 2026-05-05 17:50 | 26.79583 | -82.37959 | 40012 ft | 294 kts | 310° |
| 2026-05-05 17:50 | 26.80888 | -82.39730 | 40012 ft | 294 kts | 310° |
| 2026-05-05 17:50 | 26.82192 | -82.41500 | 40010 ft | 294 kts | 310° |
| 2026-05-05 17:50 | 26.83512 | -82.43292 | 40011 ft | 295 kts | 310° |
| 2026-05-05 17:51 | 26.84813 | -82.45060 | 40012 ft | 295 kts | 310° |
| 2026-05-05 17:51 | 26.86133 | -82.46852 | 40013 ft | 295 kts | 310° |
| 2026-05-05 17:51 | 26.87440 | -82.48630 | 40008 ft | 295 kts | 310° |
| 2026-05-05 17:51 | 26.88757 | -82.50421 | 40006 ft | 296 kts | 310° |
| 2026-05-05 17:52 | 26.90070 | -82.52207 | 40008 ft | 296 kts | 310° |
| 2026-05-05 17:52 | 26.91389 | -82.54002 | 40013 ft | 296 kts | 310° |
| 2026-05-05 17:52 | 26.92703 | -82.55791 | 40015 ft | 296 kts | 310° |
| 2026-05-05 17:52 | 26.94007 | -82.57568 | 40018 ft | 296 kts | 310° |
| 2026-05-05 17:53 | 26.95324 | -82.59363 | 40016 ft | 296 kts | 310° |
| 2026-05-05 17:53 | 26.96634 | -82.61149 | 40018 ft | 296 kts | 310° |
| 2026-05-05 17:53 | 26.97954 | -82.62949 | 40014 ft | 296 kts | 310° |
| 2026-05-05 17:53 | 26.99274 | -82.64750 | 40013 ft | 296 kts | 310° |
| 2026-05-05 17:54 | 27.00593 | -82.66550 | 40019 ft | 296 kts | 309° |
| 2026-05-05 17:54 | 27.01894 | -82.68327 | 40021 ft | 297 kts | 309° |
| 2026-05-05 17:54 | 27.03226 | -82.70145 | 40015 ft | 297 kts | 309° |
| 2026-05-05 17:54 | 27.04539 | -82.71941 | 40018 ft | 298 kts | 310° |
| 2026-05-05 17:55 | 27.05866 | -82.73755 | 40021 ft | 298 kts | 309° |
| 2026-05-05 17:55 | 27.07172 | -82.75542 | 40020 ft | 298 kts | 309° |
| 2026-05-05 17:55 | 27.08509 | -82.77371 | 40022 ft | 299 kts | 309° |
| 2026-05-05 17:55 | 27.09827 | -82.79175 | 40023 ft | 299 kts | 310° |
| 2026-05-05 17:56 | 27.11154 | -82.80991 | 40018 ft | 300 kts | 309° |
| 2026-05-05 17:56 | 27.13376 | -82.84964 | 40019 ft | 306 kts | 294° |
| 2026-05-05 17:57 | 27.14473 | -82.89671 | 40021 ft | 310 kts | 288° |
| 2026-05-05 17:57 | 27.15399 | -82.94421 | 40025 ft | 312 kts | 288° |
| 2026-05-05 17:58 | 27.16314 | -82.99189 | 40021 ft | 313 kts | 288° |
| 2026-05-05 17:58 | 27.17233 | -83.03996 | 40022 ft | 314 kts | 288° |
| 2026-05-05 17:59 | 27.18148 | -83.08791 | 40024 ft | 314 kts | 287° |
| 2026-05-05 17:59 | 27.19064 | -83.13601 | 40024 ft | 315 kts | 288° |
| 2026-05-05 18:00 | 27.19980 | -83.18418 | 40025 ft | 315 kts | 288° |
| 2026-05-05 18:00 | 27.20891 | -83.23226 | 40024 ft | 315 kts | 288° |
| 2026-05-05 18:01 | 27.21801 | -83.28033 | 40027 ft | 315 kts | 288° |
| 2026-05-05 18:01 | 27.22711 | -83.32851 | 40034 ft | 315 kts | 288° |
| 2026-05-05 18:02 | 27.23620 | -83.37676 | 40033 ft | 315 kts | 287° |
| 2026-05-05 18:02 | 27.24524 | -83.42475 | 40038 ft | 315 kts | 287° |
| 2026-05-05 18:03 | 27.25432 | -83.47315 | 40053 ft | 315 kts | 287° |
| 2026-05-05 18:03 | 27.26333 | -83.52121 | 40050 ft | 314 kts | 287° |
| 2026-05-05 18:04 | 27.27236 | -83.56951 | 40052 ft | 314 kts | 287° |
| 2026-05-05 18:04 | 27.28132 | -83.61752 | 40045 ft | 314 kts | 287° |
| 2026-05-05 18:05 | 27.29028 | -83.66559 | 40047 ft | 314 kts | 287° |
| 2026-05-05 18:05 | 27.29928 | -83.71399 | 40045 ft | 315 kts | 287° |
| 2026-05-05 18:06 | 27.30826 | -83.76239 | 40045 ft | 316 kts | 287° |
| 2026-05-05 18:06 | 27.31722 | -83.81078 | 40051 ft | 316 kts | 287° |
| 2026-05-05 18:07 | 27.32618 | -83.85926 | 40046 ft | 317 kts | 287° |
| 2026-05-05 18:07 | 27.33519 | -83.90812 | 40041 ft | 317 kts | 287° |
| 2026-05-05 18:08 | 27.34411 | -83.95661 | 40033 ft | 317 kts | 287° |
| 2026-05-05 18:08 | 27.35309 | -84.00552 | 40028 ft | 317 kts | 287° |
| 2026-05-05 18:09 | 27.36197 | -84.05393 | 40029 ft | 317 kts | 287° |
| 2026-05-05 18:09 | 27.37090 | -84.10276 | 40024 ft | 317 kts | 287° |
| 2026-05-05 18:10 | 27.37978 | -84.15141 | 40019 ft | 317 kts | 287° |
| 2026-05-05 18:10 | 27.38863 | -84.20001 | 40030 ft | 317 kts | 286° |
| 2026-05-05 18:11 | 27.39749 | -84.24874 | 40027 ft | 317 kts | 287° |
| 2026-05-05 18:11 | 27.40629 | -84.29730 | 40024 ft | 316 kts | 287° |
| 2026-05-05 18:12 | 27.41512 | -84.34605 | 40022 ft | 316 kts | 287° |
| 2026-05-05 18:12 | 27.42388 | -84.39458 | 40025 ft | 316 kts | 287° |
| 2026-05-05 18:13 | 27.43260 | -84.44293 | 40031 ft | 316 kts | 287° |
| 2026-05-05 18:13 | 27.44135 | -84.49155 | 40031 ft | 315 kts | 287° |
| 2026-05-05 18:14 | 27.45007 | -84.54019 | 40027 ft | 315 kts | 287° |
| 2026-05-05 18:14 | 27.45878 | -84.58878 | 40024 ft | 315 kts | 286° |
| 2026-05-05 18:15 | 27.46740 | -84.63704 | 40033 ft | 315 kts | 286° |
| 2026-05-05 18:15 | 27.47604 | -84.68546 | 40030 ft | 315 kts | 286° |
| 2026-05-05 18:16 | 27.48474 | -84.73431 | 40027 ft | 316 kts | 286° |
| 2026-05-05 18:16 | 27.49337 | -84.78290 | 40026 ft | 317 kts | 285° |
| 2026-05-05 18:17 | 27.50205 | -84.83189 | 40024 ft | 318 kts | 285° |
| 2026-05-05 18:17 | 27.51072 | -84.88090 | 40036 ft | 318 kts | 286° |
| 2026-05-05 18:18 | 27.51936 | -84.92988 | 40031 ft | 319 kts | 285° |
| 2026-05-05 18:18 | 27.52802 | -84.97904 | 40031 ft | 319 kts | 286° |
| 2026-05-05 18:19 | 27.53663 | -85.02802 | 40025 ft | 319 kts | 286° |
| 2026-05-05 18:19 | 27.54534 | -85.07770 | 40030 ft | 320 kts | 285° |
| 2026-05-05 18:20 | 27.55392 | -85.12677 | 40027 ft | 320 kts | 286° |
| 2026-05-05 18:20 | 27.56253 | -85.17612 | 40024 ft | 320 kts | 286° |